Wh Blount — C6JT8 — position and weather

sailwx.info

Track history (hours):
 
Tides and Currents Weather Stations Pressure Air Temp Water Temp Dewpoint Dewpoint Depression Visibility Wind Speed Wind Dir Waves Ship Positions

Wh Blount

Last reported at 2017-Dec-16 14:40 UTC. Time now 2017-Dec-16 15:08 UTC.
Position N 20°42' W 086°53'.

Length 225 m; draft 7.1 m.

Type: Cargo ship. MMSI: 308271000.

Date/timePositionNaut miles runAvg speedWind from/ knotsBaromVisibWave heightAir tempDewpointWater temp
2017-Dec-16 14:40N 20°42' W 086°53'5 9.7
2017-Dec-16 14:11N 20°38' W 086°56'2 9.4
2017-Dec-16 14:00N 20°37' W 086°58'5 9.7
2017-Dec-16 13:31N 20°36' W 087°02'3 0.1
2017-Dec-15 16:45N 20°35' W 087°05'88 6.9
2017-Dec-15 04:00N 21°48' W 086°12'121755.3 130 / 51014.110.8 25.012.1
2017-Dec-14 06:00N 25°12' W 064°24'102985.8 160 / 61015.0 5.4 20.010.9
2017-Dec-13 18:00N 26°54' W 083°24'55 8.7 280 / 131017.010.8 22.015.3
2017-Dec-13 11:41N 27°36' W 082°45'511.4
2017-Dec-13 11:16N 27°37' W 082°40'311.6
2017-Dec-13 11:00N 27°39' W 082°37'611.7
2017-Dec-13 10:30N 27°43' W 082°32'510.5
2017-Dec-13 10:00N 27°48' W 082°29'510.0
2017-Dec-13 09:30N 27°52' W 082°27'2 4.1
2017-Dec-13 08:58N 27°54' W 082°26'0 0.0
2017-Dec-13 08:28N 27°54' W 082°26'0 0.0
2017-Dec-13 07:58N 27°54' W 082°26'0 0.0
2017-Dec-13 07:28N 27°54' W 082°26'0 0.0
2017-Dec-13 06:58N 27°54' W 082°26'0 0.0
2017-Dec-13 06:28N 27°54' W 082°26'0 0.0
2017-Dec-13 05:58N 27°54' W 082°26'0 0.0
2017-Dec-13 05:28N 27°54' W 082°26'0 0.0
2017-Dec-13 04:58N 27°54' W 082°26'0 0.0
2017-Dec-13 04:28N 27°54' W 082°26'0 0.0
2017-Dec-13 03:58N 27°54' W 082°26'0 0.0
2017-Dec-13 03:28N 27°54' W 082°26'0 0.0
2017-Dec-13 02:58N 27°54' W 082°26'0 0.0
2017-Dec-13 02:28N 27°54' W 082°26'0 0.0
2017-Dec-13 01:55N 27°54' W 082°26'0 0.0
2017-Dec-13 01:28N 27°54' W 082°26'0 0.0
2017-Dec-13 00:58N 27°54' W 082°26'0 0.0
2017-Dec-13 00:25N 27°54' W 082°26'0 0.0
2017-Dec-12 23:58N 27°54' W 082°26'0 0.0
2017-Dec-12 23:28N 27°54' W 082°26'0 0.0
2017-Dec-12 22:58N 27°54' W 082°26'0 0.0
2017-Dec-12 22:28N 27°54' W 082°26'0 0.0
2017-Dec-12 21:58N 27°54' W 082°26'0 0.0
2017-Dec-12 21:25N 27°54' W 082°26'0 0.0
2017-Dec-12 20:58N 27°54' W 082°26'0 0.0
2017-Dec-12 20:28N 27°54' W 082°26'0 0.0
2017-Dec-12 19:58N 27°54' W 082°26'0 0.0
2017-Dec-12 19:28N 27°54' W 082°26'0 0.0
2017-Dec-12 18:58N 27°54' W 082°26'0 0.0
2017-Dec-12 18:28N 27°54' W 082°26'0 0.0
2017-Dec-12 17:58N 27°54' W 082°26'0 0.0
2017-Dec-12 17:28N 27°54' W 082°26'0 0.1
2017-Dec-12 17:01N 27°54' W 082°26'2 3.2
2017-Dec-12 16:30N 27°53' W 082°26'4 8.6
2017-Dec-12 16:00N 27°48' W 082°27'5 8.7
2017-Dec-12 15:29N 27°46' W 082°31'90 7.8
2017-Dec-12 04:00N 26°36' W 083°36'208 8.7 350 / 121022.010.8 18.012.7
2017-Dec-11 04:00N 23°30' W 085°18'92 9.2 010 / 221022.510.8 21.012.2
2017-Dec-10 18:00N 22°06' W 086°00'96 7.6 350 / 161022.010.8 23.014.6
2017-Dec-10 05:19N 20°43' W 086°53'3 9.2
2017-Dec-10 04:58N 20°40' W 086°55'5 9.0
2017-Dec-10 04:26N 20°37' W 086°58'4 9.6
2017-Dec-10 04:00N 20°36' W 087°03'5 0.3
2017-Dec-09 11:53N 20°34' W 087°07'1 3.3
2017-Dec-09 11:30N 20°35' W 087°06'3 6.2
2017-Dec-09 11:00N 20°36' W 087°03'145 8.5
2017-Dec-08 18:00N 22°12' W 085°06'333 8.8 270 / 161010.010.8 28.025.2
2017-Dec-07 04:00N 24°42' W 079°42'46 9.8 050 / 81005.0 5.4 26.018.2
2017-Dec-06 23:21N 25°26' W 079°30'3 9.0
2017-Dec-06 22:59N 25°30' W 079°29'4 9.1
2017-Dec-06 22:30N 25°34' W 079°28'5 9.0
2017-Dec-06 21:59N 25°38' W 079°27'10 8.4
2017-Dec-06 20:51N 25°48' W 079°24'  
Track history (hours):
 
Tides and Currents Weather Stations Pressure Air Temp Water Temp Dewpoint Dewpoint Depression Visibility Wind Speed Wind Dir Waves Ship Positions

Wh Blount

Last reported at 2017-Dec-16 14:40 UTC. Time now 2017-Dec-16 15:08 UTC.
Position N 20°42' W 086°53'.

Length 225 m; draft 7.1 m.

Type: Cargo ship. MMSI: 308271000.

Date/timePositionNaut miles runAvg speedWind from/ knotsBaromVisibWave heightAir tempDewpointWater temp
2017-Dec-16 14:40N 20°42' W 086°53'5 9.7
2017-Dec-16 14:11N 20°38' W 086°56'2 9.4
2017-Dec-16 14:00N 20°37' W 086°58'5 9.7
2017-Dec-16 13:31N 20°36' W 087°02'3 0.1
2017-Dec-15 16:45N 20°35' W 087°05'88 6.9
2017-Dec-15 04:00N 21°48' W 086°12'121755.3 130 / 51014.110.8 25.012.1
2017-Dec-14 06:00N 25°12' W 064°24'102985.8 160 / 61015.0 5.4 20.010.9
2017-Dec-13 18:00N 26°54' W 083°24'55 8.7 280 / 131017.010.8 22.015.3
2017-Dec-13 11:41N 27°36' W 082°45'511.4
2017-Dec-13 11:16N 27°37' W 082°40'311.6
2017-Dec-13 11:00N 27°39' W 082°37'611.7
2017-Dec-13 10:30N 27°43' W 082°32'510.5
2017-Dec-13 10:00N 27°48' W 082°29'510.0
2017-Dec-13 09:30N 27°52' W 082°27'2 4.1
2017-Dec-13 08:58N 27°54' W 082°26'0 0.0
2017-Dec-13 08:28N 27°54' W 082°26'0 0.0
2017-Dec-13 07:58N 27°54' W 082°26'0 0.0
2017-Dec-13 07:28N 27°54' W 082°26'0 0.0
2017-Dec-13 06:58N 27°54' W 082°26'0 0.0
2017-Dec-13 06:28N 27°54' W 082°26'0 0.0
2017-Dec-13 05:58N 27°54' W 082°26'0 0.0
2017-Dec-13 05:28N 27°54' W 082°26'0 0.0
2017-Dec-13 04:58N 27°54' W 082°26'0 0.0
2017-Dec-13 04:28N 27°54' W 082°26'0 0.0
2017-Dec-13 03:58N 27°54' W 082°26'0 0.0
2017-Dec-13 03:28N 27°54' W 082°26'0 0.0
2017-Dec-13 02:58N 27°54' W 082°26'0 0.0
2017-Dec-13 02:28N 27°54' W 082°26'0 0.0
2017-Dec-13 01:55N 27°54' W 082°26'0 0.0
2017-Dec-13 01:28N 27°54' W 082°26'0 0.0
2017-Dec-13 00:58N 27°54' W 082°26'0 0.0
2017-Dec-13 00:25N 27°54' W 082°26'0 0.0
2017-Dec-12 23:58N 27°54' W 082°26'0 0.0
2017-Dec-12 23:28N 27°54' W 082°26'0 0.0
2017-Dec-12 22:58N 27°54' W 082°26'0 0.0
2017-Dec-12 22:28N 27°54' W 082°26'0 0.0
2017-Dec-12 21:58N 27°54' W 082°26'0 0.0
2017-Dec-12 21:25N 27°54' W 082°26'0 0.0
2017-Dec-12 20:58N 27°54' W 082°26'0 0.0
2017-Dec-12 20:28N 27°54' W 082°26'0 0.0
2017-Dec-12 19:58N 27°54' W 082°26'0 0.0
2017-Dec-12 19:28N 27°54' W 082°26'0 0.0
2017-Dec-12 18:58N 27°54' W 082°26'0 0.0
2017-Dec-12 18:28N 27°54' W 082°26'0 0.0
2017-Dec-12 17:58N 27°54' W 082°26'0 0.0
2017-Dec-12 17:28N 27°54' W 082°26'0 0.1
2017-Dec-12 17:01N 27°54' W 082°26'2 3.2
2017-Dec-12 16:30N 27°53' W 082°26'4 8.6
2017-Dec-12 16:00N 27°48' W 082°27'5 8.7
2017-Dec-12 15:29N 27°46' W 082°31'90 7.8
2017-Dec-12 04:00N 26°36' W 083°36'208 8.7 350 / 121022.010.8 18.012.7
2017-Dec-11 04:00N 23°30' W 085°18'92 9.2 010 / 221022.510.8 21.012.2
2017-Dec-10 18:00N 22°06' W 086°00'96 7.6 350 / 161022.010.8 23.014.6
2017-Dec-10 05:19N 20°43' W 086°53'3 9.2
2017-Dec-10 04:58N 20°40' W 086°55'5 9.0
2017-Dec-10 04:26N 20°37' W 086°58'4 9.6
2017-Dec-10 04:00N 20°36' W 087°03'5 0.3
2017-Dec-09 11:53N 20°34' W 087°07'1 3.3
2017-Dec-09 11:30N 20°35' W 087°06'3 6.2
2017-Dec-09 11:00N 20°36' W 087°03'145 8.5
2017-Dec-08 18:00N 22°12' W 085°06'333 8.8 270 / 161010.010.8 28.025.2
2017-Dec-07 04:00N 24°42' W 079°42'46 9.8 050 / 81005.0 5.4 26.018.2
2017-Dec-06 23:21N 25°26' W 079°30'3 9.0
2017-Dec-06 22:59N 25°30' W 079°29'4 9.1
2017-Dec-06 22:30N 25°34' W 079°28'5 9.0
2017-Dec-06 21:59N 25°38' W 079°27'10 8.4
2017-Dec-06 20:51N 25°48' W 079°24'  

Dump ship's entire track history